Etusivu
METAR-TAF:

METAR-TAF

Lentoasemat :

Fairfield Municipal Airport

Fairfield, Iowa, Yhdysvallat

Leveyspiiri: 41-03N, Pituuspiiri: 091-59W, korkeus merenpinnasta: 244 m

Tämänhetkinen sää

Tämä raportti tehtiin 22 minuuttia sitten, kello 12.15 UTC
Tuuli 7 kn etelästä/kaakosta
Lämpötila 0°C
Kosteus 100%
Ilmanpaine 1014 hPa
Näkyvyys: 8.0 km
Pilvistä 500 ft:n korkeudessa
utua

METAR: KFFL 231215Z AUTO 15007KT 5SM BR OVC005 M00/M00 A2994 RMK A01

Aika: 06:37 (12:37 UTC)


TAF: puuttuu

Säähavainnot ja -ennusteet yli 4000 lentoasemalta (METAR- ja TAF-raportit).

Käytössä olevat sääasemat on merkitty karttaan keltaisilla ja punaisilla pisteillä.

Aseta hiiri pisteen päälle nähdäksesi sääaseman nimen.

Klikkaa sitten nähdäksesi säähavainnot ja -ennusteet.

Kartan vaihtaminen: klikkaa mustalla rastilla varustettuja vihreitä pisteitä, niin voit zoomata sisään; viivalla varustettua vihreää pistettä, niin voit zoomata ulos tai vihreitä nuolia, niin pääset viereisille kartoille.


METAR-TAF: